createdAt,value
2022-10-23T00:00:29.094Z,8.18
2022-10-23T00:01:00.618Z,7.43
2022-10-23T00:01:33.742Z,7.45
2022-10-23T00:02:05.218Z,7.22
2022-10-23T00:02:36.660Z,7.50
2022-10-23T00:03:08.188Z,7.57
2022-10-23T00:03:39.531Z,7.30
2022-10-23T00:04:15.373Z,8.63
2022-10-23T00:04:50.036Z,7.80
2022-10-23T00:05:21.523Z,7.70
2022-10-23T00:05:52.968Z,9.80
2022-10-23T00:06:24.606Z,9.50
2022-10-23T00:06:55.990Z,9.43
2022-10-23T00:07:27.414Z,9.55
2022-10-23T00:07:59.588Z,7.97
2022-10-23T00:08:31.068Z,7.13
2022-10-23T00:09:04.607Z,7.45
2022-10-23T00:09:36.007Z,6.93
2022-10-23T00:10:07.597Z,7.28
2022-10-23T00:10:40.917Z,7.88
2022-10-23T00:11:14.671Z,7.03
2022-10-23T00:11:46.926Z,7.30
2022-10-23T00:12:18.765Z,7.55
2022-10-23T00:12:50.574Z,7.15
2022-10-23T00:13:21.945Z,7.07
2022-10-23T00:13:54.712Z,7.05
2022-10-23T00:14:26.099Z,7.45
2022-10-23T00:14:57.539Z,7.05
2022-10-23T00:15:29.019Z,7.68
2022-10-23T00:16:00.402Z,7.28
2022-10-23T00:16:31.850Z,7.10
2022-10-23T00:17:03.646Z,6.97
2022-10-23T00:17:35.029Z,6.40
2022-10-23T00:18:06.414Z,6.72
2022-10-23T00:18:38.267Z,7.80
2022-10-23T00:19:10.263Z,8.82
2022-10-23T00:19:41.645Z,7.20
2022-10-23T00:20:13.548Z,7.32
2022-10-23T00:20:44.933Z,7.10
2022-10-23T00:21:17.187Z,6.93
2022-10-23T00:21:48.581Z,7.25
2022-10-23T00:22:19.960Z,6.93
2022-10-23T00:22:51.347Z,7.28
2022-10-23T00:23:23.048Z,7.47
2022-10-23T00:23:54.424Z,7.43
2022-10-23T00:24:25.826Z,7.10
2022-10-23T00:24:57.201Z,7.57
2022-10-23T00:25:28.533Z,7.43
2022-10-23T00:25:59.918Z,7.57
2022-10-23T00:26:31.353Z,7.15
2022-10-23T00:27:02.740Z,7.18
2022-10-23T00:27:34.232Z,7.60
2022-10-23T00:28:05.579Z,8.07
2022-10-23T00:28:37.359Z,7.20
2022-10-23T00:29:09.523Z,8.02
2022-10-23T00:29:40.914Z,7.47
2022-10-23T00:30:12.755Z,7.80
2022-10-23T00:30:44.142Z,7.60
2022-10-23T00:31:15.988Z,7.28
2022-10-23T00:31:47.372Z,8.15
2022-10-23T00:32:18.780Z,7.45
2022-10-23T00:32:50.194Z,7.72
2022-10-23T00:33:21.578Z,7.70
2022-10-23T00:33:53.168Z,6.83
2022-10-23T00:34:24.552Z,7.00
2022-10-23T00:34:56.001Z,6.85
2022-10-23T00:35:27.379Z,8.45
2022-10-23T00:35:58.764Z,7.38
2022-10-23T00:36:30.151Z,8.20
2022-10-23T00:37:01.538Z,8.30
2022-10-23T00:37:32.920Z,8.50
2022-10-23T00:38:04.255Z,8.57
2022-10-23T00:38:36.254Z,9.20
2022-10-23T00:39:07.652Z,7.43
2022-10-23T00:39:39.034Z,8.60
2022-10-23T00:40:10.669Z,8.50
2022-10-23T00:40:42.097Z,8.60
2022-10-23T00:41:15.708Z,8.23
2022-10-23T00:41:47.082Z,7.68
2022-10-23T00:42:19.556Z,7.17
2022-10-23T00:42:50.927Z,7.80
2022-10-23T00:43:23.550Z,8.15
2022-10-23T00:43:56.522Z,7.95
2022-10-23T00:44:30.988Z,7.65
2022-10-23T00:45:14.961Z,7.78
2022-10-23T00:45:46.310Z,7.50
2022-10-23T00:46:17.735Z,6.97
2022-10-23T00:46:49.223Z,7.53
2022-10-23T00:47:20.863Z,7.22
2022-10-23T00:47:52.808Z,7.13
2022-10-23T00:48:25.218Z,7.47
2022-10-23T00:48:57.118Z,7.82
2022-10-23T00:49:28.579Z,7.45
2022-10-23T00:50:00.008Z,7.60
2022-10-23T00:50:32.566Z,7.32
2022-10-23T00:51:04.063Z,7.50
2022-10-23T00:51:40.096Z,7.10
2022-10-23T00:52:12.453Z,6.78
2022-10-23T00:52:48.607Z,6.88
2022-10-23T00:53:20.957Z,7.88
2022-10-23T00:54:01.391Z,7.05
2022-10-23T00:54:44.265Z,7.05
2022-10-23T00:55:16.315Z,7.53
2022-10-23T00:55:48.976Z,7.13
2022-10-23T00:56:20.373Z,8.40
2022-10-23T00:56:53.550Z,7.72
2022-10-23T00:57:25.101Z,7.00
2022-10-23T00:57:56.723Z,7.30
2022-10-23T00:58:28.110Z,8.05
2022-10-23T00:58:59.495Z,6.70
2022-10-23T00:59:31.657Z,7.75
2022-10-23T01:00:04.012Z,6.85
2022-10-23T01:00:43.641Z,7.20
2022-10-23T01:01:19.179Z,8.30
2022-10-23T01:01:50.805Z,8.43
2022-10-23T01:02:22.318Z,7.57
2022-10-23T01:02:54.670Z,7.35
2022-10-23T01:03:27.536Z,7.93
2022-10-23T01:03:59.067Z,7.57
2022-10-23T01:04:32.009Z,7.38
2022-10-23T01:05:03.434Z,7.75
2022-10-23T01:05:57.907Z,8.23
2022-10-23T01:06:34.923Z,7.60
2022-10-23T01:07:17.995Z,7.40
2022-10-23T01:08:18.558Z,6.75
2022-10-23T01:08:55.624Z,7.10
2022-10-23T01:09:29.842Z,7.15
2022-10-23T01:10:09.416Z,7.10
2022-10-23T01:10:45.452Z,7.82
2022-10-23T01:11:19.658Z,7.65
2022-10-23T01:12:09.729Z,7.20
2022-10-23T01:12:53.165Z,6.45
2022-10-23T01:13:34.822Z,8.45
2022-10-23T01:14:11.034Z,8.07
2022-10-23T01:14:45.539Z,8.10
2022-10-23T01:15:20.372Z,8.25
2022-10-23T01:16:27.017Z,7.88
2022-10-23T01:17:04.378Z,8.30
2022-10-23T01:17:44.854Z,7.68
2022-10-23T01:18:19.352Z,8.65
2022-10-23T01:19:19.929Z,8.10
2022-10-23T01:20:00.270Z,7.55
2022-10-23T01:20:42.875Z,7.70
2022-10-23T01:21:34.837Z,7.65
2022-10-23T01:22:18.713Z,7.97
2022-10-23T01:23:05.100Z,7.50
2022-10-23T01:23:52.208Z,7.85
2022-10-23T01:24:29.328Z,7.70
2022-10-23T01:25:01.956Z,7.40
2022-10-23T01:25:51.553Z,7.28
2022-10-23T01:26:25.978Z,7.60
2022-10-23T01:27:02.212Z,7.63
2022-10-23T01:27:36.572Z,7.70
2022-10-23T01:28:14.866Z,8.30
2022-10-23T01:28:55.776Z,8.38
2022-10-23T01:29:36.329Z,7.55
2022-10-23T01:30:07.769Z,7.57
2022-10-23T01:30:42.843Z,8.32
2022-10-23T01:31:20.634Z,7.75
2022-10-23T01:32:00.110Z,8.52
2022-10-23T01:32:44.266Z,7.80
2022-10-23T01:33:25.911Z,7.80
2022-10-23T01:34:04.104Z,8.45
2022-10-23T01:34:38.973Z,7.65
2022-10-23T01:35:16.658Z,7.85
2022-10-23T01:35:50.502Z,7.70
2022-10-23T01:36:23.840Z,7.30
2022-10-23T01:36:56.507Z,8.00
2022-10-23T01:37:32.913Z,7.78
2022-10-23T01:38:04.289Z,7.68
2022-10-23T01:38:49.543Z,7.85
2022-10-23T01:39:23.504Z,7.55
2022-10-23T01:39:55.550Z,7.87
2022-10-23T01:40:33.031Z,7.68
2022-10-23T01:41:09.937Z,8.13
2022-10-23T01:41:46.402Z,7.40
2022-10-23T01:42:21.675Z,7.90
2022-10-23T01:42:54.904Z,8.15
2022-10-23T01:43:29.773Z,7.72
2022-10-23T01:44:11.252Z,8.85
2022-10-23T01:44:44.789Z,7.82
2022-10-23T01:45:21.763Z,7.45
2022-10-23T01:45:54.991Z,7.43
2022-10-23T01:46:27.336Z,8.20
2022-10-23T01:46:58.745Z,8.10
2022-10-23T01:47:32.883Z,7.78
2022-10-23T01:48:05.436Z,8.00
2022-10-23T01:48:37.146Z,8.52
2022-10-23T01:49:10.720Z,7.78
2022-10-23T01:49:42.575Z,7.57
2022-10-23T01:50:15.178Z,7.57
2022-10-23T01:50:47.038Z,8.68
2022-10-23T01:51:19.340Z,7.65
2022-10-23T01:51:56.259Z,8.15
2022-10-23T01:52:27.794Z,7.95
2022-10-23T01:52:59.180Z,7.93
2022-10-23T01:53:31.600Z,7.90
2022-10-23T01:54:05.789Z,8.27
2022-10-23T01:54:39.437Z,7.50
2022-10-23T01:55:11.847Z,7.50
2022-10-23T01:55:44.145Z,8.35
2022-10-23T01:56:17.685Z,8.27
2022-10-23T01:56:50.196Z,8.38
2022-10-23T01:57:22.767Z,8.00
2022-10-23T01:57:54.756Z,7.45
2022-10-23T01:58:26.462Z,7.75
2022-10-23T01:58:58.615Z,8.30
2022-10-23T01:59:32.572Z,8.27
2022-10-23T02:00:07.482Z,7.55
2022-10-23T02:00:39.779Z,8.27
2022-10-23T02:01:12.320Z,8.05
2022-10-23T02:01:46.316Z,8.30
2022-10-23T02:02:18.811Z,8.27
2022-10-23T02:02:51.363Z,7.77
2022-10-23T02:03:23.364Z,8.05
2022-10-23T02:03:56.021Z,8.53
2022-10-23T02:04:30.644Z,8.15
2022-10-23T02:05:17.138Z,7.97
2022-10-23T02:05:48.520Z,7.80
2022-10-23T02:06:19.960Z,8.43
2022-10-23T02:06:51.399Z,8.18
2022-10-23T02:07:23.040Z,8.35
2022-10-23T02:07:54.407Z,7.38
2022-10-23T02:08:25.808Z,8.55
2022-10-23T02:08:57.311Z,8.32
2022-10-23T02:09:28.734Z,8.15
2022-10-23T02:10:00.161Z,8.15
2022-10-23T02:10:48.882Z,8.50
2022-10-23T02:11:21.435Z,8.15
2022-10-23T02:11:54.858Z,7.97
2022-10-23T02:13:08.283Z,8.60
2022-10-23T02:13:44.791Z,8.95
2022-10-23T02:14:18.941Z,8.23
2022-10-23T02:14:55.298Z,8.88
2022-10-23T02:15:26.642Z,8.30
2022-10-23T02:16:07.542Z,8.15
2022-10-23T02:16:44.814Z,9.00
2022-10-23T02:17:31.507Z,8.13
2022-10-23T02:18:02.844Z,7.40
2022-10-23T02:18:52.150Z,7.82
2022-10-23T02:19:29.382Z,8.05
2022-10-23T02:20:07.313Z,8.75
2022-10-23T02:20:41.822Z,9.68
2022-10-23T02:21:15.475Z,9.52
2022-10-23T02:21:49.971Z,9.55
2022-10-23T02:22:30.055Z,10.13
2022-10-23T02:23:01.391Z,8.20
2022-10-23T02:23:34.839Z,8.80
2022-10-23T02:24:09.390Z,9.93
2022-10-23T02:24:46.662Z,9.45
2022-10-23T02:25:22.756Z,13.05
2022-10-23T02:25:59.627Z,9.20
2022-10-23T02:26:36.293Z,9.70
2022-10-23T02:27:12.944Z,8.52
2022-10-23T02:27:47.059Z,9.85
2022-10-23T02:28:22.535Z,9.10
2022-10-23T02:28:55.852Z,10.05
2022-10-23T02:29:53.305Z,10.68
2022-10-23T02:30:24.793Z,8.32
2022-10-23T02:30:59.363Z,8.88
2022-10-23T02:31:31.155Z,8.73
2022-10-23T02:32:02.645Z,8.70
2022-10-23T02:32:34.944Z,9.15
2022-10-23T02:33:07.568Z,7.90
2022-10-23T02:33:39.359Z,8.65
2022-10-23T02:34:10.891Z,8.48
2022-10-23T02:34:42.283Z,8.90
2022-10-23T02:35:14.638Z,8.52
2022-10-23T02:35:47.205Z,8.23
2022-10-23T02:36:19.050Z,7.75
2022-10-23T02:36:50.915Z,8.68
2022-10-23T02:38:00.078Z,9.73
2022-10-23T02:38:39.107Z,9.90
2022-10-23T02:39:10.531Z,9.40
2022-10-23T02:39:42.112Z,8.10
2022-10-23T02:40:13.554Z,9.47
2022-10-23T02:40:46.495Z,7.30
2022-10-23T02:41:26.965Z,8.88
2022-10-23T02:42:09.373Z,8.90
2022-10-23T02:42:48.484Z,9.00
2022-10-23T02:43:30.474Z,9.13
2022-10-23T02:44:20.647Z,8.65
2022-10-23T02:45:12.258Z,9.88
2022-10-23T02:45:43.593Z,8.55
2022-10-23T02:46:20.354Z,9.03
2022-10-23T02:47:10.389Z,9.20
2022-10-23T02:48:00.672Z,8.60
2022-10-23T02:48:36.066Z,7.60
2022-10-23T02:49:07.472Z,7.90
2022-10-23T02:49:50.899Z,8.80
2022-10-23T02:50:40.969Z,8.75
2022-10-23T02:51:21.724Z,8.65
2022-10-23T02:52:01.657Z,8.25
2022-10-23T02:52:33.048Z,8.43
2022-10-23T02:53:16.777Z,7.85
2022-10-23T02:53:54.414Z,9.00
2022-10-23T02:54:31.828Z,9.18
2022-10-23T02:55:22.122Z,8.90
2022-10-23T02:55:56.471Z,8.18
2022-10-23T02:56:41.212Z,8.20
2022-10-23T02:57:15.685Z,8.88
2022-10-23T02:58:06.111Z,8.98
2022-10-23T02:58:43.544Z,10.00
2022-10-23T02:59:18.004Z,8.93
2022-10-23T03:00:01.823Z,8.83
2022-10-23T03:00:35.214Z,8.02
2022-10-23T03:01:09.452Z,7.53
2022-10-23T03:02:03.554Z,8.80
2022-10-23T03:02:35.067Z,8.43
2022-10-23T03:03:10.238Z,8.90
2022-10-23T03:03:44.699Z,8.60
2022-10-23T03:04:17.268Z,8.50
2022-10-23T03:04:49.065Z,7.72
2022-10-23T03:05:21.932Z,8.68
2022-10-23T03:05:53.317Z,7.53
2022-10-23T03:06:25.160Z,8.75
2022-10-23T03:06:56.546Z,9.52
2022-10-23T03:07:28.035Z,9.10
2022-10-23T03:07:59.391Z,8.43
2022-10-23T03:08:30.810Z,8.48
2022-10-23T03:09:04.192Z,9.07
2022-10-23T03:09:36.804Z,8.90
2022-10-23T03:10:09.264Z,8.30
2022-10-23T03:10:40.991Z,8.35
2022-10-23T03:11:12.348Z,9.18
2022-10-23T03:11:43.786Z,8.38
2022-10-23T03:12:15.175Z,8.68
2022-10-23T03:12:46.563Z,8.70
2022-10-23T03:13:17.935Z,8.13
2022-10-23T03:13:49.330Z,7.93
2022-10-23T03:14:20.956Z,8.65
2022-10-23T03:14:52.407Z,8.73
2022-10-23T03:15:23.741Z,8.15
2022-10-23T03:15:55.129Z,8.07
2022-10-23T03:16:26.566Z,8.15
2022-10-23T03:16:57.951Z,8.90
2022-10-23T03:17:29.335Z,7.85
2022-10-23T03:18:00.728Z,9.13
2022-10-23T03:18:32.165Z,7.20
2022-10-23T03:19:03.588Z,8.90
2022-10-23T03:19:35.036Z,8.55
2022-10-23T03:20:06.933Z,8.95
2022-10-23T03:20:38.320Z,8.45
2022-10-23T03:21:10.174Z,8.75
2022-10-23T03:21:41.504Z,9.00
2022-10-23T03:22:12.837Z,9.85
2022-10-23T03:22:44.580Z,8.00
2022-10-23T03:23:16.277Z,8.15
2022-10-23T03:23:47.664Z,9.05
2022-10-23T03:24:19.049Z,8.65
2022-10-23T03:24:50.631Z,8.67
2022-10-23T03:25:22.096Z,8.65
2022-10-23T03:25:53.922Z,8.73
2022-10-23T03:26:25.365Z,8.43
2022-10-23T03:26:56.848Z,7.65
2022-10-23T03:28:00.543Z,8.80
2022-10-23T03:28:31.926Z,7.77
2022-10-23T03:29:03.330Z,8.93
2022-10-23T03:29:34.713Z,8.85
2022-10-23T03:30:06.557Z,8.35
2022-10-23T03:30:37.941Z,8.43
2022-10-23T03:31:09.342Z,7.95
2022-10-23T03:31:40.757Z,8.50
2022-10-23T03:32:12.145Z,9.13
2022-10-23T03:32:43.739Z,8.82
2022-10-23T03:33:15.414Z,8.10
2022-10-23T03:33:46.818Z,8.57
2022-10-23T03:34:18.146Z,8.85
2022-10-23T03:34:49.534Z,8.20
2022-10-23T03:35:20.972Z,8.55
2022-10-23T03:35:52.364Z,8.63
2022-10-23T03:36:23.747Z,9.23
2022-10-23T03:36:55.138Z,9.07
2022-10-23T03:37:26.529Z,9.23
2022-10-23T03:37:57.982Z,8.70
2022-10-23T03:38:29.451Z,8.73
2022-10-23T03:39:00.796Z,8.35
2022-10-23T03:39:32.160Z,8.35
2022-10-23T03:40:04.509Z,9.35
2022-10-23T03:40:35.914Z,8.73
2022-10-23T03:41:07.294Z,8.50
2022-10-23T03:41:38.681Z,8.40
2022-10-23T03:42:10.035Z,8.73
2022-10-23T03:42:41.456Z,8.50
2022-10-23T03:43:13.095Z,8.70
2022-10-23T03:43:44.476Z,7.90
2022-10-23T03:44:15.889Z,8.23
2022-10-23T03:44:47.352Z,9.18
2022-10-23T03:45:18.763Z,8.38
2022-10-23T03:45:50.192Z,8.95
2022-10-23T03:46:21.603Z,9.25
2022-10-23T03:46:53.056Z,8.57
2022-10-23T03:47:24.484Z,9.60
2022-10-23T03:47:56.856Z,7.60
2022-10-23T03:48:28.231Z,7.72
2022-10-23T03:48:59.629Z,8.38
2022-10-23T03:49:31.469Z,8.93
2022-10-23T03:50:02.858Z,8.57
2022-10-23T03:50:35.122Z,8.25
2022-10-23T03:51:06.660Z,8.20
2022-10-23T03:51:38.142Z,8.10
2022-10-23T03:52:09.518Z,8.27
2022-10-23T03:52:41.292Z,8.63
2022-10-23T03:53:13.095Z,9.35
2022-10-23T03:53:44.448Z,8.75
2022-10-23T03:54:15.840Z,8.35
2022-10-23T03:54:47.221Z,8.63
2022-10-23T03:55:18.611Z,8.45
2022-10-23T03:55:50.000Z,8.57
2022-10-23T03:56:21.495Z,7.30
2022-10-23T03:56:56.517Z,8.45
2022-10-23T03:57:29.016Z,9.02
2022-10-23T03:58:00.406Z,8.43
2022-10-23T03:58:31.789Z,8.70
2022-10-23T03:59:03.230Z,8.35
2022-10-23T03:59:34.678Z,8.98
2022-10-23T04:00:06.409Z,8.65
2022-10-23T04:00:37.855Z,8.70
2022-10-23T04:01:09.585Z,7.80
2022-10-23T04:01:41.152Z,8.93
2022-10-23T04:02:12.704Z,8.32
2022-10-23T04:02:44.678Z,8.10
2022-10-23T04:03:17.459Z,8.57
2022-10-23T04:03:48.981Z,8.02
2022-10-23T04:04:20.315Z,8.55
2022-10-23T04:04:51.702Z,8.43
2022-10-23T04:05:25.902Z,8.15
2022-10-23T04:05:57.275Z,8.27
2022-10-23T04:06:28.734Z,8.85
2022-10-23T04:07:00.328Z,8.23
2022-10-23T04:07:31.801Z,8.27
2022-10-23T04:08:03.298Z,7.75
2022-10-23T04:08:34.680Z,7.90
2022-10-23T04:09:06.404Z,7.70
2022-10-23T04:09:37.909Z,8.25
2022-10-23T04:10:09.609Z,8.57
2022-10-23T04:10:40.998Z,7.65
2022-10-23T04:11:12.335Z,7.47
2022-10-23T04:11:43.767Z,8.02
2022-10-23T04:12:15.133Z,8.63
2022-10-23T04:12:46.545Z,7.40
2022-10-23T04:13:17.977Z,7.88
2022-10-23T04:13:49.310Z,7.82
2022-10-23T04:14:20.718Z,9.20
2022-10-23T04:14:55.052Z,8.25
2022-10-23T04:15:26.431Z,8.95
2022-10-23T04:15:57.827Z,8.07
2022-10-23T04:16:29.204Z,7.05
2022-10-23T04:17:01.048Z,7.05
2022-10-23T04:17:32.486Z,8.15
2022-10-23T04:18:05.078Z,7.47
2022-10-23T04:18:36.450Z,8.52
2022-10-23T04:19:07.824Z,7.63
2022-10-23T04:19:39.214Z,7.72
2022-10-23T04:20:10.618Z,8.43
2022-10-23T04:20:41.987Z,9.50
2022-10-23T04:21:13.528Z,8.40
2022-10-23T04:21:44.862Z,8.95
2022-10-23T04:22:16.338Z,8.45
2022-10-23T04:22:47.746Z,9.00
2022-10-23T04:23:19.179Z,9.65
2022-10-23T04:23:50.571Z,8.63
2022-10-23T04:24:22.661Z,8.27
2022-10-23T04:24:54.056Z,8.60
2022-10-23T04:25:25.592Z,7.45
2022-10-23T04:25:57.460Z,7.30
2022-10-23T04:26:28.835Z,7.65
2022-10-23T04:27:00.291Z,7.88
2022-10-23T04:27:31.811Z,7.65
2022-10-23T04:28:03.284Z,7.93
2022-10-23T04:28:34.881Z,7.80
2022-10-23T04:29:06.267Z,7.68
2022-10-23T04:29:37.707Z,7.80
2022-10-23T04:30:09.569Z,7.70
2022-10-23T04:30:41.004Z,7.90
2022-10-23T04:31:12.400Z,8.20
2022-10-23T04:31:43.837Z,7.80
2022-10-23T04:32:15.246Z,7.95
2022-10-23T04:32:46.693Z,8.32
2022-10-23T04:33:18.447Z,7.82
2022-10-23T04:33:50.014Z,7.10
2022-10-23T04:34:21.413Z,7.07
2022-10-23T04:34:52.913Z,7.35
2022-10-23T04:35:24.277Z,8.52
2022-10-23T04:35:55.773Z,7.55
2022-10-23T04:36:27.166Z,7.55
2022-10-23T04:36:58.543Z,7.45
2022-10-23T04:37:29.940Z,7.55
2022-10-23T04:38:01.268Z,8.15
2022-10-23T04:38:32.859Z,6.43
2022-10-23T04:39:04.235Z,7.77
2022-10-23T04:39:35.665Z,8.02
2022-10-23T04:40:07.424Z,7.93
2022-10-23T04:40:38.942Z,7.78
2022-10-23T04:41:10.353Z,7.45
2022-10-23T04:41:41.849Z,7.03
2022-10-23T04:42:13.307Z,7.15
2022-10-23T04:42:45.084Z,7.35
2022-10-23T04:43:16.567Z,7.63
2022-10-23T04:43:48.094Z,7.85
2022-10-23T04:44:19.473Z,7.70
2022-10-23T04:44:51.041Z,8.15
2022-10-23T04:45:22.463Z,7.57
2022-10-23T04:45:53.962Z,7.75
2022-10-23T04:46:25.347Z,7.28
2022-10-23T04:46:56.719Z,7.15
2022-10-23T04:47:28.111Z,7.93
2022-10-23T04:47:59.493Z,7.75
2022-10-23T04:48:31.137Z,7.65
2022-10-23T04:49:02.524Z,7.47
2022-10-23T04:49:33.962Z,7.63
2022-10-23T04:50:05.599Z,8.68
2022-10-23T04:50:37.050Z,6.90
2022-10-23T04:51:09.606Z,7.03
2022-10-23T04:51:41.044Z,7.40
2022-10-23T04:52:12.422Z,8.05
2022-10-23T04:52:43.969Z,7.78
2022-10-23T04:53:15.594Z,7.80
2022-10-23T04:53:46.994Z,7.10
2022-10-23T04:54:18.376Z,7.30
2022-10-23T04:54:49.770Z,7.57
2022-10-23T04:55:21.366Z,7.80
2022-10-23T04:55:53.977Z,7.68
2022-10-23T04:56:25.360Z,7.30
2022-10-23T04:56:56.727Z,7.55
2022-10-23T04:57:28.132Z,7.85
2022-10-23T04:57:59.518Z,7.50
2022-10-23T04:58:30.912Z,7.13
2022-10-23T04:59:02.395Z,7.37
2022-10-23T04:59:33.930Z,7.40
2022-10-23T05:00:06.701Z,7.43
2022-10-23T05:00:38.120Z,8.82
2022-10-23T05:01:10.056Z,9.70
2022-10-23T05:01:41.614Z,9.38
2022-10-23T05:02:13.065Z,9.45
2022-10-23T05:02:44.977Z,9.07
2022-10-23T05:03:17.223Z,7.38
2022-10-23T05:03:48.758Z,7.57
2022-10-23T05:04:20.101Z,8.18
2022-10-23T05:04:51.534Z,8.38
2022-10-23T05:05:23.018Z,7.95
2022-10-23T05:05:55.220Z,8.10
2022-10-23T05:06:26.657Z,7.30
2022-10-23T05:06:58.048Z,7.63
2022-10-23T05:07:29.478Z,7.65
2022-10-23T05:08:01.018Z,8.37
2022-10-23T05:08:32.519Z,9.10
2022-10-23T05:09:04.002Z,10.13
2022-10-23T05:09:35.406Z,9.15
2022-10-23T05:10:07.082Z,8.25
2022-10-23T05:10:38.774Z,7.65
2022-10-23T05:11:10.169Z,8.43
2022-10-23T05:11:41.542Z,7.18
2022-10-23T05:12:13.139Z,8.48
2022-10-23T05:12:44.467Z,9.32
2022-10-23T05:13:17.066Z,8.80
2022-10-23T05:13:48.519Z,8.63
2022-10-23T05:14:22.700Z,8.20
2022-10-23T05:14:54.371Z,8.40
2022-10-23T05:15:25.908Z,8.95
2022-10-23T05:15:58.375Z,8.35
2022-10-23T05:16:29.704Z,8.05
2022-10-23T05:17:02.882Z,8.93
2022-10-23T05:17:37.751Z,8.55
2022-10-23T05:18:12.162Z,9.18
2022-10-23T05:18:47.641Z,8.45
2022-10-23T05:19:24.149Z,7.82
2022-10-23T05:19:57.634Z,8.75
2022-10-23T05:20:33.111Z,8.60
2022-10-23T05:21:11.673Z,8.80
2022-10-23T05:21:43.106Z,8.30
2022-10-23T05:22:15.157Z,9.43
2022-10-23T05:22:47.720Z,8.95
2022-10-23T05:23:20.228Z,8.70
2022-10-23T05:23:51.704Z,8.68
2022-10-23T05:24:23.523Z,8.80
2022-10-23T05:24:54.908Z,7.93
2022-10-23T05:25:26.392Z,8.88
2022-10-23T05:25:57.826Z,8.70
2022-10-23T05:26:30.910Z,8.47
2022-10-23T05:27:02.256Z,8.38
2022-10-23T05:27:33.575Z,9.45
2022-10-23T05:28:04.960Z,9.18
2022-10-23T05:28:36.347Z,8.52
2022-10-23T05:29:07.731Z,9.18
2022-10-23T05:29:39.126Z,8.93
2022-10-23T05:30:10.868Z,9.82
2022-10-23T05:30:42.609Z,9.18
2022-10-23T05:31:14.760Z,9.63
2022-10-23T05:31:46.864Z,8.65
2022-10-23T05:32:18.478Z,9.35
2022-10-23T05:32:49.993Z,9.60
2022-10-23T05:33:21.382Z,9.38
2022-10-23T05:33:54.311Z,9.07
2022-10-23T05:34:26.259Z,9.23
2022-10-23T05:34:58.209Z,9.33
2022-10-23T05:35:29.792Z,11.35
2022-10-23T05:36:01.546Z,10.23
2022-10-23T05:36:32.975Z,9.70
2022-10-23T05:37:05.644Z,8.60
2022-10-23T05:37:41.565Z,10.02
2022-10-23T05:38:13.333Z,9.82
2022-10-23T05:38:45.122Z,9.57
2022-10-23T05:39:16.715Z,10.02
2022-10-23T05:39:48.097Z,9.85
2022-10-23T05:40:19.581Z,9.85
2022-10-23T05:40:51.648Z,9.93
2022-10-23T05:41:23.027Z,10.15
2022-10-23T05:41:54.514Z,9.57
2022-10-23T05:42:25.860Z,9.50
2022-10-23T05:42:57.184Z,10.55
2022-10-23T05:43:28.571Z,10.07
2022-10-23T05:43:59.917Z,10.02
2022-10-23T05:44:31.343Z,9.98
2022-10-23T05:45:02.786Z,9.93
2022-10-23T05:45:34.219Z,9.60
2022-10-23T05:46:06.013Z,10.68
2022-10-23T05:46:41.495Z,9.52
2022-10-23T05:47:12.994Z,10.30
2022-10-23T05:47:47.550Z,10.43
2022-10-23T05:48:33.496Z,10.18
2022-10-23T05:49:05.599Z,9.93
2022-10-23T05:49:37.075Z,9.23
2022-10-23T05:50:08.604Z,10.00
2022-10-23T05:50:39.990Z,10.45
2022-10-23T05:51:11.478Z,9.15
2022-10-23T05:51:42.860Z,10.43
2022-10-23T05:52:14.303Z,9.95
2022-10-23T05:52:46.332Z,10.25
2022-10-23T05:53:17.837Z,10.75
2022-10-23T05:53:49.687Z,10.25
2022-10-23T05:54:21.127Z,10.57
2022-10-23T05:54:52.563Z,10.82
2022-10-23T05:55:25.639Z,10.25
2022-10-23T05:55:57.073Z,9.90
2022-10-23T05:56:28.482Z,10.43
2022-10-23T05:56:59.893Z,9.90
2022-10-23T05:57:34.356Z,9.55
2022-10-23T05:58:05.747Z,10.18
2022-10-23T05:58:37.171Z,10.38
2022-10-23T05:59:08.991Z,10.57
2022-10-23T05:59:40.469Z,9.77
2022-10-23T06:00:12.217Z,10.57
2022-10-23T06:00:43.545Z,10.98
2022-10-23T06:01:16.190Z,10.27
2022-10-23T06:01:47.713Z,10.18
2022-10-23T06:02:19.317Z,9.60
2022-10-23T06:02:50.839Z,11.52
2022-10-23T06:03:22.278Z,11.10
2022-10-23T06:03:53.654Z,10.35
2022-10-23T06:04:25.242Z,11.95
2022-10-23T06:04:56.682Z,11.82
2022-10-23T06:05:28.187Z,11.77
2022-10-23T06:05:59.671Z,11.27
2022-10-23T06:06:31.181Z,12.55
2022-10-23T06:07:03.041Z,11.73
2022-10-23T06:07:35.872Z,12.48
2022-10-23T06:08:07.554Z,12.63
2022-10-23T06:08:38.903Z,12.50
2022-10-23T06:09:10.283Z,12.00
2022-10-23T06:09:41.616Z,11.05
2022-10-23T06:10:13.072Z,10.23
2022-10-23T06:10:44.544Z,12.32
2022-10-23T06:11:15.877Z,11.88
2022-10-23T06:11:47.360Z,10.57
2022-10-23T06:12:19.416Z,10.65
2022-10-23T06:12:51.369Z,11.27
2022-10-23T06:13:22.804Z,10.68
2022-10-23T06:13:54.324Z,11.82
2022-10-23T06:14:25.782Z,11.15
2022-10-23T06:14:57.671Z,10.73
2022-10-23T06:15:29.064Z,10.88
2022-10-23T06:16:00.448Z,11.13
2022-10-23T06:16:31.886Z,10.88
2022-10-23T06:17:03.326Z,11.27
2022-10-23T06:17:34.709Z,11.43
2022-10-23T06:18:06.148Z,11.73
2022-10-23T06:18:37.583Z,12.40
2022-10-23T06:19:12.559Z,10.88
2022-10-23T06:19:44.506Z,11.30
2022-10-23T06:20:15.944Z,12.30
2022-10-23T06:20:47.329Z,11.98
2022-10-23T06:21:19.386Z,11.55
2022-10-23T06:21:50.820Z,11.20
2022-10-23T06:22:22.206Z,10.75
2022-10-23T06:22:53.585Z,10.90
2022-10-23T06:23:24.981Z,11.05
2022-10-23T06:23:56.673Z,11.13
2022-10-23T06:24:28.051Z,10.65
2022-10-23T06:24:59.440Z,11.70
2022-10-23T06:25:31.243Z,10.80
2022-10-23T06:26:03.033Z,10.05
2022-10-23T06:26:34.673Z,10.50
2022-10-23T06:27:06.059Z,10.05
2022-10-23T06:27:37.458Z,9.55
2022-10-23T06:28:08.841Z,10.68
2022-10-23T06:28:40.727Z,11.05
2022-10-23T06:29:12.169Z,9.32
2022-10-23T06:29:43.605Z,10.30
2022-10-23T06:30:14.991Z,10.83
2022-10-23T06:30:46.380Z,11.02
2022-10-23T06:31:18.067Z,10.07
2022-10-23T06:31:49.496Z,9.82
2022-10-23T06:32:20.844Z,9.68
2022-10-23T06:32:52.179Z,10.50
2022-10-23T06:33:23.562Z,10.25
2022-10-23T06:33:55.310Z,10.55
2022-10-23T06:34:26.745Z,10.23
2022-10-23T06:34:58.126Z,9.80
2022-10-23T06:35:29.531Z,9.80
2022-10-23T06:36:00.957Z,9.90
2022-10-23T06:36:32.633Z,10.65
2022-10-23T06:37:04.043Z,9.43
2022-10-23T06:37:35.422Z,9.07
2022-10-23T06:38:06.807Z,9.13
2022-10-23T06:38:38.445Z,8.95
2022-10-23T06:39:09.836Z,8.93
2022-10-23T06:39:41.324Z,8.60
2022-10-23T06:40:12.763Z,8.60
2022-10-23T06:40:44.148Z,8.70
2022-10-23T06:41:21.945Z,9.00
2022-10-23T06:41:53.325Z,8.95
2022-10-23T06:42:24.653Z,8.93
2022-10-23T06:42:56.453Z,8.93
2022-10-23T06:43:27.836Z,9.55
2022-10-23T06:43:59.234Z,9.60
2022-10-23T06:44:30.596Z,9.35
2022-10-23T06:45:04.916Z,9.95
2022-10-23T06:45:37.891Z,9.55
2022-10-23T06:46:09.950Z,10.10
2022-10-23T06:46:41.491Z,9.15
2022-10-23T06:47:12.904Z,9.45
2022-10-23T06:47:44.530Z,9.07
2022-10-23T06:48:16.458Z,9.02
2022-10-23T06:48:47.841Z,9.85
2022-10-23T06:49:19.227Z,9.95
2022-10-23T06:49:50.603Z,9.98
2022-10-23T06:50:22.053Z,11.38
2022-10-23T06:50:53.486Z,11.77
2022-10-23T06:51:24.879Z,11.23
2022-10-23T06:51:56.283Z,12.20
2022-10-23T06:52:45.791Z,10.90
2022-10-23T06:53:18.231Z,11.32
2022-10-23T06:53:49.823Z,12.45
2022-10-23T06:54:21.205Z,11.48
2022-10-23T06:54:52.620Z,12.05
2022-10-23T06:55:24.242Z,12.63
2022-10-23T06:56:01.928Z,13.00
2022-10-23T06:56:33.494Z,11.97
2022-10-23T06:57:04.909Z,12.55
2022-10-23T06:57:36.338Z,12.60
2022-10-23T06:58:08.037Z,11.90
2022-10-23T06:58:40.022Z,13.73
2022-10-23T06:59:11.414Z,13.25
2022-10-23T06:59:42.801Z,11.98
2022-10-23T07:00:14.341Z,11.40
2022-10-23T07:00:45.771Z,12.32
2022-10-23T07:01:18.328Z,11.38
2022-10-23T07:01:50.099Z,11.30
2022-10-23T07:02:21.576Z,10.73
2022-10-23T07:02:53.227Z,11.32
2022-10-23T07:03:24.609Z,11.05
2022-10-23T07:03:55.990Z,10.95
2022-10-23T07:04:27.371Z,11.82
2022-10-23T07:04:58.759Z,9.48
2022-10-23T07:05:30.145Z,9.93
2022-10-23T07:06:02.264Z,10.57
2022-10-23T07:06:33.692Z,10.55
2022-10-23T07:07:05.072Z,10.20
2022-10-23T07:07:36.457Z,10.25
2022-10-23T07:08:07.862Z,10.88
2022-10-23T07:08:39.229Z,10.35
2022-10-23T07:09:10.629Z,9.70
2022-10-23T07:09:42.053Z,10.63
2022-10-23T07:10:49.637Z,10.65
2022-10-23T07:11:21.077Z,11.27
2022-10-23T07:11:52.469Z,10.30
2022-10-23T07:12:23.909Z,9.57
2022-10-23T07:12:55.289Z,10.48
2022-10-23T07:13:26.640Z,9.38
2022-10-23T07:13:57.955Z,9.73
2022-10-23T07:14:29.411Z,10.27
2022-10-23T07:15:00.781Z,10.30
2022-10-23T07:15:32.128Z,9.90
2022-10-23T07:16:11.304Z,10.30
2022-10-23T07:16:42.785Z,9.77
2022-10-23T07:17:14.269Z,10.55
2022-10-23T07:17:45.648Z,9.30
2022-10-23T07:18:17.103Z,10.52
2022-10-23T07:18:49.253Z,9.93
2022-10-23T07:19:20.680Z,10.07
2022-10-23T07:19:52.064Z,9.32
2022-10-23T07:20:23.495Z,9.93
2022-10-23T07:20:58.267Z,9.63